Ploërmel Loyat Airfield

METAR LFRV TAF LFRN
8 °C
°C
-
°C
22m
Âge
11:22:06
LT
10:22
UTC
0 ft

1.000

2.000

3.000

4.000

5.000

FEW 2.100
OVC 4.500
VFR
<?= Yii::t('app', 'Wind direction') ?> <?= Yii::t('app', 'of'); ?>
350°
18:17
Coucher de soleil
82%
Humidité
Cisaillement du vent
Fermé/neige
Portée visuelle RWY
Condition RWY
Visibilité vert.
Visibilité min.
CAVOK
Tendance
Correction
Rapport spécial
1043 hPa
QNH
METAR LFRV 051000Z AUTO 35005KT 9999 FEW021 OVC045 08/05 Q1043
Couvert
5 kt
5 kt
11:00
IFR
8 kt
12:00
VFR
8 kt
13:00
VFR
10 kt
14:00
VFR
10 kt
15:00
VFR
10 kt
16:00
VFR
10 kt
17:00
VFR
10 kt
10 km+
Vue
4.500 ft
Base cloud
5 kt
Vent
metar-taf.com/LFRP

Metar-Taf.com

Décodeur visuel

Nous et des tiers suivons ton comportement Internet sur notre site Web à l'aide de cookies. Si tu continues, nous supposons que tu es d'accord avec notre Politique en matière de cookies.